Time;durP1;ratioP1;P1;durP2;ratioP2;P2;SDS_P1;SDS_P2;PMS_P1;PMS_P2;Temp;Humidity;BMP_temperature;BMP_pressure;BME280_temperature;BME280_humidity;BME280_pressure;Samples;Min_cycle;Max_cycle;Signal;HPM_P1;HPM_P2
2022/03/15 00:00:48;;;;;;;;;;;22.80;99.90;;;;;;5033768;28;19909;-70
2022/03/15 00:03:15;;;;;;;;;;;22.80;99.90;;;;;;5051950;28;19959;-70
2022/03/15 00:05:42;;;;;;;;;;;22.80;99.90;;;;;;5052124;28;19937;-70
2022/03/15 00:08:09;;;;;;;;;;;22.80;99.90;;;;;;5051746;28;19913;-70
2022/03/15 00:10:35;;;;;;;;;;;22.70;99.90;;;;;;5051936;28;19916;-71
2022/03/15 00:13:03;;;;;;;;;;;22.90;99.90;;;;;;5052004;28;19931;-70
2022/03/15 00:15:30;;;;;;;;;;;23.20;99.90;;;;;;5051984;28;20020;-69
2022/03/15 00:17:57;;;;;;;;;;;23.20;99.90;;;;;;5051613;28;19925;-70
2022/03/15 00:20:24;;;;;;;;;;;23.00;99.90;;;;;;5051583;28;20318;-70
2022/03/15 00:22:52;;;;;;;;;;;22.70;99.90;;;;;;5051916;28;19913;-69
2022/03/15 00:25:19;;;;;;;;;;;22.70;99.90;;;;;;5051731;28;19959;-69
2022/03/15 00:27:46;;;;;;;;;;;22.90;99.90;;;;;;5051897;28;20443;-69
2022/03/15 00:30:14;;;;;;;;;;;23.00;99.90;;;;;;5051482;28;19909;-69
2022/03/15 00:32:41;;;;;;;;;;;23.00;99.90;;;;;;5052219;28;19909;-70
2022/03/15 00:35:11;;;;;;;;;;;22.90;99.90;;;;;;5055338;28;20325;-70
2022/03/15 00:37:38;;;;;;;;;;;22.90;99.90;;;;;;5055445;28;19930;-70
2022/03/15 00:40:05;;;;;;;;;;;23.00;99.90;;;;;;5055141;28;19909;-70
2022/03/15 00:42:31;;;;;;;;;;;23.00;99.90;;;;;;5055453;28;19909;-70
2022/03/15 00:45:04;;;;;;;;;;;23.00;99.90;;;;;;5055325;28;19916;-70
2022/03/15 00:47:31;;;;;;;;;;;22.90;99.90;;;;;;5055744;28;20263;-70
2022/03/15 00:49:58;;;;;;;;;;;23.00;99.90;;;;;;5055312;28;20003;-70
2022/03/15 00:52:25;;;;;;;;;;;22.90;99.90;;;;;;5055262;28;19908;-70
2022/03/15 00:54:52;;;;;;;;;;;23.10;99.90;;;;;;5055320;28;19917;-70
2022/03/15 00:57:18;;;;;;;;;;;23.10;99.90;;;;;;5055222;28;19978;-71
2022/03/15 00:59:46;;;;;;;;;;;23.10;99.90;;;;;;5054650;28;19909;-70
2022/03/15 01:02:12;;;;;;;;;;;23.20;99.90;;;;;;5055160;28;19909;-70
2022/03/15 01:04:39;;;;;;;;;;;23.10;99.90;;;;;;5055037;28;19913;-70
2022/03/15 01:07:06;;;;;;;;;;;23.30;99.90;;;;;;5055257;28;19987;-70
2022/03/15 01:09:32;;;;;;;;;;;23.30;99.90;;;;;;5037019;28;19915;-70
2022/03/15 01:11:59;;;;;;;;;;;23.30;99.90;;;;;;5054829;28;19920;-70
2022/03/15 01:14:27;;;;;;;;;;;23.50;99.90;;;;;;5054406;28;19962;-70
2022/03/15 01:16:55;;;;;;;;;;;23.60;99.90;;;;;;5054543;28;20282;-70
2022/03/15 01:19:22;;;;;;;;;;;23.80;99.90;;;;;;5054756;28;19916;-70
2022/03/15 01:21:50;;;;;;;;;;;23.70;99.90;;;;;;5054633;28;20011;-70
2022/03/15 01:24:17;;;;;;;;;;;23.90;99.90;;;;;;5054595;28;19909;-71
2022/03/15 01:26:43;;;;;;;;;;;23.80;99.90;;;;;;5054723;28;19913;-70
2022/03/15 01:29:10;;;;;;;;;;;23.60;99.90;;;;;;5054708;28;19916;-70
2022/03/15 01:31:37;;;;;;;;;;;23.50;99.90;;;;;;5053299;28;20286;-70
2022/03/15 01:34:03;;;;;;;;;;;23.30;99.90;;;;;;5054428;28;19946;-71
2022/03/15 01:36:30;;;;;;;;;;;23.10;99.90;;;;;;5053960;28;19917;-70
2022/03/15 01:38:57;;;;;;;;;;;23.10;99.90;;;;;;5054139;28;19913;-71
2022/03/15 01:41:24;;;;;;;;;;;23.30;99.90;;;;;;5054393;28;20314;-71
2022/03/15 01:43:51;;;;;;;;;;;23.60;99.90;;;;;;5036063;28;19908;-71
2022/03/15 01:46:18;;;;;;;;;;;23.90;99.90;;;;;;5053346;28;19987;-71
2022/03/15 01:48:44;;;;;;;;;;;23.90;99.90;;;;;;5054302;28;19923;-70
2022/03/15 01:51:16;;;;;;;;;;;23.90;99.90;;;;;;5054224;28;19913;-71
2022/03/15 01:53:42;;;;;;;;;;;24.00;99.90;;;;;;5054405;28;19909;-71
2022/03/15 01:56:09;;;;;;;;;;;24.10;99.90;;;;;;5053547;28;19985;-71
2022/03/15 01:58:36;;;;;;;;;;;24.20;99.90;;;;;;5053632;28;19959;-70
2022/03/15 02:01:03;;;;;;;;;;;24.10;99.90;;;;;;5054091;28;19920;-70
2022/03/15 02:03:30;;;;;;;;;;;24.10;99.90;;;;;;5053606;28;19982;-71
2022/03/15 02:05:57;;;;;;;;;;;24.20;99.90;;;;;;5053771;28;19913;-68
2022/03/15 02:08:23;;;;;;;;;;;24.30;99.90;;;;;;5053606;28;19955;-70
2022/03/15 02:10:50;;;;;;;;;;;24.30;99.90;;;;;;5053814;28;19909;-70
2022/03/15 02:13:17;;;;;;;;;;;24.30;99.90;;;;;;5053425;28;20271;-69
2022/03/15 02:15:43;;;;;;;;;;;24.20;99.90;;;;;;5053589;28;19927;-70
2022/03/15 02:18:10;;;;;;;;;;;23.80;99.90;;;;;;5053322;28;19952;-70
2022/03/15 02:20:37;;;;;;;;;;;23.70;99.90;;;;;;5053630;28;19943;-70
2022/03/15 02:23:04;;;;;;;;;;;23.80;99.90;;;;;;5053488;28;20287;-70
2022/03/15 02:25:30;;;;;;;;;;;23.70;99.90;;;;;;5053419;28;19913;-70
2022/03/15 02:27:57;;;;;;;;;;;23.80;99.90;;;;;;5053691;28;19909;-70
2022/03/15 02:30:24;;;;;;;;;;;23.60;99.90;;;;;;5053099;28;20303;-70
2022/03/15 02:32:51;;;;;;;;;;;23.60;99.90;;;;;;5053393;28;19940;-69
2022/03/15 02:35:18;;;;;;;;;;;23.40;99.90;;;;;;5053540;28;19975;-69
2022/03/15 02:37:45;;;;;;;;;;;23.40;99.90;;;;;;5053174;28;19908;-70
2022/03/15 02:40:12;;;;;;;;;;;23.50;99.90;;;;;;5052764;28;19916;-69
2022/03/15 02:42:38;;;;;;;;;;;23.60;99.90;;;;;;5035147;28;19916;-69
2022/03/15 02:45:06;;;;;;;;;;;23.80;99.90;;;;;;5052754;28;19963;-70
2022/03/15 02:47:32;;;;;;;;;;;23.70;99.90;;;;;;5052867;28;20327;-70
2022/03/15 02:49:59;;;;;;;;;;;23.50;99.90;;;;;;5053036;28;20252;-69
2022/03/15 02:52:26;;;;;;;;;;;23.40;99.90;;;;;;5052840;28;19909;-70
2022/03/15 02:54:52;;;;;;;;;;;23.40;99.90;;;;;;5053084;28;19923;-69
2022/03/15 02:57:23;;;;;;;;;;;23.40;99.90;;;;;;5052887;28;19956;-69
2022/03/15 02:59:49;;;;;;;;;;;23.40;99.90;;;;;;5052643;28;19917;-69
2022/03/15 03:02:17;;;;;;;;;;;23.60;99.90;;;;;;5052582;28;19909;-70
2022/03/15 03:04:43;;;;;;;;;;;23.70;99.90;;;;;;5052690;28;20314;-70
2022/03/15 03:07:12;;;;;;;;;;;23.70;99.90;;;;;;5052834;28;19909;-70
2022/03/15 03:09:38;;;;;;;;;;;23.50;99.90;;;;;;5052719;28;20378;-70
2022/03/15 03:12:05;;;;;;;;;;;23.50;99.90;;;;;;5052446;28;19915;-70
2022/03/15 03:14:34;;;;;;;;;;;23.60;99.90;;;;;;5052604;28;19915;-70
2022/03/15 03:17:01;;;;;;;;;;;23.60;99.90;;;;;;5051363;28;19921;-69
2022/03/15 03:19:27;;;;;;;;;;;23.80;99.90;;;;;;5052603;28;20003;-69
2022/03/15 03:21:54;;;;;;;;;;;23.90;99.90;;;;;;5052624;28;19913;-70
2022/03/15 03:24:24;;;;;;;;;;;23.90;99.90;;;;;;5052437;28;19988;-69
2022/03/15 03:26:51;;;;;;;;;;;24.10;99.90;;;;;;5052586;28;19913;-70
2022/03/15 03:29:18;;;;;;;;;;;24.20;99.90;;;;;;5052513;28;20447;-69
2022/03/15 03:31:44;;;;;;;;;;;24.10;99.90;;;;;;5052511;28;19919;-69
2022/03/15 03:34:12;;;;;;;;;;;24.00;99.90;;;;;;5052278;28;19952;-70
2022/03/15 03:36:39;;;;;;;;;;;24.00;99.90;;;;;;5052483;28;19924;-69
2022/03/15 03:39:06;;;;;;;;;;;24.00;99.90;;;;;;5052706;28;19963;-69
2022/03/15 03:41:33;;;;;;;;;;;24.00;99.90;;;;;;5052672;28;19908;-70
2022/03/15 03:44:00;;;;;;;;;;;24.00;99.90;;;;;;5052311;28;19909;-70
2022/03/15 03:46:27;;;;;;;;;;;24.00;99.90;;;;;;5052167;28;19909;-70
2022/03/15 03:48:55;;;;;;;;;;;24.00;99.90;;;;;;5052327;28;19943;-70
2022/03/15 03:51:22;;;;;;;;;;;24.00;99.90;;;;;;5052256;28;19909;-70
2022/03/15 03:53:49;;;;;;;;;;;23.90;99.90;;;;;;5052235;28;19963;-70
2022/03/15 03:56:16;;;;;;;;;;;24.00;99.90;;;;;;5051830;28;19916;-70
2022/03/15 03:58:42;;;;;;;;;;;23.90;99.90;;;;;;5052094;28;19909;-69
2022/03/15 04:01:09;;;;;;;;;;;24.00;99.90;;;;;;5052421;28;19913;-70
2022/03/15 04:03:37;;;;;;;;;;;24.00;99.90;;;;;;5052176;28;19909;-69
2022/03/15 04:06:05;;;;;;;;;;;24.10;99.90;;;;;;5051722;28;19908;-69
2022/03/15 04:08:32;;;;;;;;;;;24.10;99.90;;;;;;5053972;28;19913;-70
2022/03/15 04:10:59;;;;;;;;;;;23.90;99.90;;;;;;5056039;28;19909;-70
2022/03/15 04:13:26;;;;;;;;;;;23.80;99.90;;;;;;5055821;28;19909;-70
2022/03/15 04:15:53;;;;;;;;;;;23.80;99.90;;;;;;5055900;28;19924;-70
2022/03/15 04:18:20;;;;;;;;;;;23.80;99.90;;;;;;5055385;28;19921;-70
2022/03/15 04:20:47;;;;;;;;;;;23.80;99.90;;;;;;5055591;28;20252;-70
2022/03/15 04:23:14;;;;;;;;;;;23.90;99.90;;;;;;5055964;28;19916;-70
2022/03/15 04:25:41;;;;;;;;;;;23.80;99.90;;;;;;5056034;28;19909;-69
2022/03/15 04:28:08;;;;;;;;;;;23.70;99.90;;;;;;5055363;28;20262;-70
2022/03/15 04:30:35;;;;;;;;;;;23.80;99.90;;;;;;5055727;28;20000;-69
2022/03/15 04:33:01;;;;;;;;;;;23.80;99.90;;;;;;5055800;28;19915;-69
2022/03/15 04:35:31;;;;;;;;;;;23.80;99.90;;;;;;5055408;28;19942;-69
2022/03/15 04:37:58;;;;;;;;;;;23.90;99.90;;;;;;5055446;28;19951;-70
2022/03/15 04:40:25;;;;;;;;;;;23.80;99.90;;;;;;5055251;28;19909;-70
2022/03/15 04:42:53;;;;;;;;;;;23.70;99.90;;;;;;5055165;28;19938;-69
2022/03/15 04:45:21;;;;;;;;;;;23.80;99.90;;;;;;5055427;28;19909;-70
2022/03/15 04:47:48;;;;;;;;;;;23.80;99.90;;;;;;5055497;28;19909;-70
2022/03/15 04:50:15;;;;;;;;;;;23.70;99.90;;;;;;5055168;28;20375;-70
2022/03/15 04:52:41;;;;;;;;;;;23.80;99.90;;;;;;5055235;28;19909;-69
2022/03/15 04:55:08;;;;;;;;;;;23.90;99.90;;;;;;5055208;28;20353;-69
2022/03/15 04:57:35;;;;;;;;;;;23.80;99.90;;;;;;5055189;28;19909;-69
2022/03/15 05:00:09;;;;;;;;;;;23.70;99.90;;;;;;5054942;28;19991;-69
2022/03/15 05:02:36;;;;;;;;;;;23.60;99.90;;;;;;5055150;28;20288;-69
2022/03/15 05:05:03;;;;;;;;;;;23.70;99.90;;;;;;5055086;28;19999;-69
2022/03/15 05:07:30;;;;;;;;;;;23.70;99.90;;;;;;5055002;28;19947;-69
2022/03/15 05:12:42;;;;;;;;;;;23.70;99.90;;;;;;5055144;28;19916;-69
2022/03/15 05:15:09;;;;;;;;;;;23.90;99.90;;;;;;5054720;28;19917;-69
2022/03/15 05:17:36;;;;;;;;;;;23.90;99.90;;;;;;5054547;28;20260;-69
2022/03/15 05:20:05;;;;;;;;;;;23.90;99.90;;;;;;5053371;28;19984;-69
2022/03/15 05:22:32;;;;;;;;;;;23.90;99.90;;;;;;5054670;28;20278;-69
2022/03/15 05:24:59;;;;;;;;;;;23.80;99.90;;;;;;5054796;28;20271;-69
2022/03/15 05:27:26;;;;;;;;;;;23.80;99.90;;;;;;5054629;28;20371;-69
2022/03/15 05:29:53;;;;;;;;;;;23.60;99.90;;;;;;5054536;28;20011;-69
2022/03/15 05:32:20;;;;;;;;;;;23.60;99.90;;;;;;5054419;28;19913;-69
2022/03/15 05:34:46;;;;;;;;;;;23.30;99.90;;;;;;5054284;28;19967;-69
2022/03/15 05:37:13;;;;;;;;;;;23.40;99.90;;;;;;5054350;28;19908;-69
2022/03/15 05:39:39;;;;;;;;;;;23.30;99.90;;;;;;5054555;28;19955;-69
2022/03/15 05:42:06;;;;;;;;;;;23.30;99.90;;;;;;5053811;28;19908;-71
2022/03/15 05:44:33;;;;;;;;;;;23.40;99.90;;;;;;5054085;28;19955;-69
2022/03/15 05:46:59;;;;;;;;;;;23.40;99.90;;;;;;5054373;28;19989;-69
2022/03/15 05:49:26;;;;;;;;;;;23.40;99.90;;;;;;5054150;28;19909;-69
2022/03/15 05:51:53;;;;;;;;;;;23.40;99.90;;;;;;5051999;28;19952;-69
2022/03/15 05:54:19;;;;;;;;;;;23.20;99.90;;;;;;5051975;28;19917;-69
2022/03/15 05:56:46;;;;;;;;;;;23.00;99.90;;;;;;5051776;28;19921;-71
2022/03/15 05:59:13;;;;;;;;;;;23.00;99.90;;;;;;5051883;28;19913;-69
2022/03/15 06:01:40;;;;;;;;;;;23.00;99.90;;;;;;5051757;28;19924;-69
2022/03/15 06:04:07;;;;;;;;;;;23.00;99.90;;;;;;5051290;28;19944;-71
2022/03/15 06:06:34;;;;;;;;;;;23.00;99.90;;;;;;5051614;28;19913;-71
2022/03/15 06:09:01;;;;;;;;;;;23.00;99.90;;;;;;5051961;28;19913;-71
2022/03/15 06:11:28;;;;;;;;;;;23.00;99.90;;;;;;5051413;28;19920;-70
2022/03/15 06:13:55;;;;;;;;;;;23.00;99.90;;;;;;5051368;28;20337;-69
2022/03/15 06:16:21;;;;;;;;;;;23.00;99.90;;;;;;5050925;28;19916;-69
2022/03/15 06:18:48;;;;;;;;;;;23.10;99.90;;;;;;5051190;28;19917;-69
2022/03/15 06:21:15;;;;;;;;;;;23.00;99.90;;;;;;5051596;28;19909;-69
2022/03/15 06:23:42;;;;;;;;;;;23.00;99.90;;;;;;5051417;28;19909;-69
2022/03/15 06:26:09;;;;;;;;;;;23.00;99.90;;;;;;5051238;28;19915;-70
2022/03/15 06:28:36;;;;;;;;;;;23.10;99.90;;;;;;5051469;28;20200;-70
2022/03/15 06:31:03;;;;;;;;;;;23.00;99.90;;;;;;5050525;28;20363;-69
2022/03/15 06:33:30;;;;;;;;;;;22.90;99.90;;;;;;5051463;28;19956;-70
2022/03/15 06:35:57;;;;;;;;;;;23.00;99.90;;;;;;5051151;28;19917;-70
2022/03/15 06:38:24;;;;;;;;;;;23.00;99.90;;;;;;5050915;28;19909;-69
2022/03/15 06:40:52;;;;;;;;;;;22.90;99.90;;;;;;5051081;28;19909;-70
2022/03/15 06:43:19;;;;;;;;;;;22.90;99.90;;;;;;5050627;28;19917;-70
2022/03/15 06:45:46;;;;;;;;;;;22.90;99.90;;;;;;5051154;28;19909;-70
2022/03/15 06:48:14;;;;;;;;;;;22.90;99.90;;;;;;5050777;28;19932;-70
2022/03/15 06:50:41;;;;;;;;;;;22.80;99.90;;;;;;5051087;28;19913;-70
2022/03/15 06:53:08;;;;;;;;;;;22.70;99.90;;;;;;5051338;28;19920;-70
2022/03/15 06:55:34;;;;;;;;;;;22.70;99.90;;;;;;5050854;28;20596;-71
2022/03/15 06:58:01;;;;;;;;;;;22.70;99.90;;;;;;5050336;28;20441;-73
2022/03/15 07:00:28;;;;;;;;;;;22.60;99.90;;;;;;5050929;28;20275;-71
2022/03/15 07:02:55;;;;;;;;;;;22.60;99.90;;;;;;5050875;28;20050;-71
2022/03/15 07:05:21;;;;;;;;;;;22.50;99.90;;;;;;5050454;28;19952;-71
2022/03/15 07:07:48;;;;;;;;;;;22.40;99.90;;;;;;5050600;28;19909;-71
2022/03/15 07:10:17;;;;;;;;;;;22.40;99.90;;;;;;5050167;28;19913;-71
2022/03/15 07:12:44;;;;;;;;;;;22.40;99.90;;;;;;5050459;28;19913;-70
2022/03/15 07:15:11;;;;;;;;;;;22.40;99.90;;;;;;5050724;28;20065;-70
2022/03/15 07:17:38;;;;;;;;;;;22.40;99.90;;;;;;5050443;28;19927;-71
2022/03/15 07:20:05;;;;;;;;;;;22.30;99.90;;;;;;5050194;28;19908;-71
2022/03/15 07:22:31;;;;;;;;;;;22.30;99.90;;;;;;5049869;28;20011;-71
2022/03/15 07:24:58;;;;;;;;;;;22.30;99.90;;;;;;5050335;28;19921;-71
2022/03/15 07:27:24;;;;;;;;;;;22.30;99.90;;;;;;5050438;28;19916;-71
2022/03/15 07:29:51;;;;;;;;;;;22.30;99.90;;;;;;5050218;28;19916;-70
2022/03/15 07:32:18;;;;;;;;;;;22.30;99.90;;;;;;5050038;28;20387;-70
2022/03/15 07:34:44;;;;;;;;;;;22.20;99.90;;;;;;5050299;28;20436;-70
2022/03/15 07:37:11;;;;;;;;;;;22.20;99.90;;;;;;5049743;28;19913;-70
2022/03/15 07:39:38;;;;;;;;;;;22.20;99.90;;;;;;5050090;28;20005;-70
2022/03/15 07:42:05;;;;;;;;;;;22.10;99.90;;;;;;5049013;28;20004;-70
2022/03/15 07:44:32;;;;;;;;;;;22.10;99.90;;;;;;5049432;28;20274;-70
2022/03/15 07:46:58;;;;;;;;;;;22.10;99.90;;;;;;5050354;28;20340;-70
2022/03/15 07:49:25;;;;;;;;;;;22.20;99.90;;;;;;5049824;28;19913;-70
2022/03/15 07:51:52;;;;;;;;;;;22.10;99.90;;;;;;5050280;28;20000;-71
2022/03/15 07:54:18;;;;;;;;;;;22.20;99.90;;;;;;5049895;28;19959;-71
2022/03/15 07:56:45;;;;;;;;;;;22.10;99.90;;;;;;5050132;28;20371;-70
2022/03/15 07:59:12;;;;;;;;;;;22.10;99.90;;;;;;5049915;28;20006;-70
2022/03/15 08:01:39;;;;;;;;;;;22.00;99.90;;;;;;5049661;28;19912;-70
2022/03/15 08:04:05;;;;;;;;;;;22.00;99.90;;;;;;5049537;28;19924;-70
2022/03/15 08:06:35;;;;;;;;;;;22.00;99.90;;;;;;5051453;28;19909;-70
2022/03/15 08:09:03;;;;;;;;;;;22.00;99.90;;;;;;5052104;28;19909;-71
2022/03/15 08:11:30;;;;;;;;;;;22.00;99.90;;;;;;5051919;28;19913;-70
2022/03/15 08:13:57;;;;;;;;;;;21.90;99.90;;;;;;5051944;28;20294;-70
2022/03/15 08:16:23;;;;;;;;;;;21.80;99.90;;;;;;5051772;28;19917;-71
2022/03/15 08:18:50;;;;;;;;;;;21.80;99.90;;;;;;5052271;28;19917;-70
2022/03/15 08:21:18;;;;;;;;;;;21.80;99.90;;;;;;5034192;28;19909;-71
2022/03/15 08:23:46;;;;;;;;;;;21.80;99.90;;;;;;5052312;28;19948;-71
2022/03/15 08:26:13;;;;;;;;;;;21.90;99.90;;;;;;5051730;28;19915;-71
2022/03/15 08:28:39;;;;;;;;;;;21.90;99.90;;;;;;5051956;28;19967;-71
2022/03/15 08:31:06;;;;;;;;;;;21.80;99.90;;;;;;5052269;28;19908;-70
2022/03/15 08:33:33;;;;;;;;;;;21.80;99.90;;;;;;5051497;28;19916;-70
2022/03/15 08:36:00;;;;;;;;;;;21.70;99.90;;;;;;5051958;28;19921;-70
2022/03/15 08:38:28;;;;;;;;;;;21.60;99.90;;;;;;5050429;28;19916;-71
2022/03/15 08:40:56;;;;;;;;;;;21.50;99.90;;;;;;5051788;28;20354;-71
2022/03/15 08:43:22;;;;;;;;;;;21.30;99.90;;;;;;5051582;28;19962;-70
2022/03/15 08:45:49;;;;;;;;;;;21.30;99.90;;;;;;5051740;28;19970;-71
2022/03/15 08:48:16;;;;;;;;;;;21.30;99.90;;;;;;5050883;28;19909;-71
2022/03/15 08:50:45;;;;;;;;;;;21.20;99.90;;;;;;5051676;28;19909;-71
2022/03/15 08:53:12;;;;;;;;;;;21.10;99.90;;;;;;5052013;28;19909;-70
2022/03/15 08:55:39;;;;;;;;;;;21.10;99.90;;;;;;5055022;28;20412;-71
2022/03/15 08:58:05;;;;;;;;;;;21.00;99.90;;;;;;5055367;28;20267;-71
2022/03/15 09:00:32;;;;;;;;;;;21.00;99.90;;;;;;5055720;28;19916;-71
2022/03/15 09:02:59;;;;;;;;;;;21.00;99.90;;;;;;5054850;28;19913;-70
2022/03/15 09:05:26;;;;;;;;;;;20.90;99.90;;;;;;5054937;28;19932;-71
2022/03/15 09:07:53;;;;;;;;;;;20.90;99.90;;;;;;5054963;28;19908;-71
2022/03/15 09:10:20;;;;;;;;;;;20.90;99.90;;;;;;5054718;28;19999;-71
2022/03/15 09:12:47;;;;;;;;;;;20.90;99.90;;;;;;5054651;28;19909;-70
2022/03/15 09:15:15;;;;;;;;;;;21.00;99.90;;;;;;5054760;28;20282;-70
2022/03/15 09:17:42;;;;;;;;;;;21.00;99.90;;;;;;5054256;28;19921;-70
2022/03/15 09:20:09;;;;;;;;;;;21.00;99.90;;;;;;5054944;28;19916;-70
2022/03/15 09:22:36;;;;;;;;;;;20.90;99.90;;;;;;5055424;28;20348;-70
2022/03/15 09:25:03;;;;;;;;;;;20.90;99.90;;;;;;5054813;28;19955;-71
2022/03/15 09:27:30;;;;;;;;;;;20.90;99.90;;;;;;5054446;28;20318;-71
2022/03/15 09:29:58;;;;;;;;;;;20.80;99.90;;;;;;5054711;28;19920;-71
2022/03/15 09:32:25;;;;;;;;;;;20.80;99.90;;;;;;5054232;28;19909;-70
2022/03/15 09:34:52;;;;;;;;;;;20.80;99.90;;;;;;5054486;28;19909;-71
2022/03/15 09:37:19;;;;;;;;;;;20.80;99.90;;;;;;5054534;28;20279;-71
2022/03/15 09:39:46;;;;;;;;;;;20.70;99.90;;;;;;5054355;28;20015;-70
2022/03/15 09:42:13;;;;;;;;;;;20.80;99.90;;;;;;5054057;28;19924;-71
2022/03/15 09:44:41;;;;;;;;;;;20.80;99.90;;;;;;5054724;28;19919;-70
2022/03/15 09:47:08;;;;;;;;;;;20.80;99.90;;;;;;5054571;28;19940;-71
2022/03/15 09:49:35;;;;;;;;;;;20.80;99.90;;;;;;5054373;28;19932;-71
2022/03/15 09:52:04;;;;;;;;;;;20.80;99.90;;;;;;5053768;28;19936;-71
2022/03/15 09:54:31;;;;;;;;;;;20.80;99.90;;;;;;5054048;28;19916;-71
2022/03/15 09:56:58;;;;;;;;;;;20.80;99.90;;;;;;5053955;28;19917;-71
2022/03/15 09:59:26;;;;;;;;;;;20.70;99.90;;;;;;5054143;28;20381;-71
2022/03/15 10:01:54;;;;;;;;;;;20.60;99.90;;;;;;5054096;28;20338;-71
2022/03/15 10:04:22;;;;;;;;;;;20.60;99.90;;;;;;5053867;28;19920;-71
2022/03/15 10:06:50;;;;;;;;;;;20.60;99.90;;;;;;5053113;28;20326;-70
2022/03/15 10:09:16;;;;;;;;;;;20.60;99.90;;;;;;5053995;28;19909;-71
2022/03/15 10:11:43;;;;;;;;;;;20.50;99.90;;;;;;5053900;28;19913;-71
2022/03/15 10:14:10;;;;;;;;;;;20.50;99.90;;;;;;5053527;28;19920;-71
2022/03/15 10:16:41;;;;;;;;;;;20.50;99.90;;;;;;5053517;28;19921;-70
2022/03/15 10:19:09;;;;;;;;;;;20.60;99.90;;;;;;5053727;28;20355;-70
2022/03/15 10:21:56;;;;;;;;;;;20.50;99.90;;;;;;5053535;28;20008;-71
2022/03/15 10:24:24;;;;;;;;;;;20.40;99.90;;;;;;5053261;28;20367;-71
2022/03/15 10:26:51;;;;;;;;;;;20.40;99.90;;;;;;5049881;28;19913;-71
2022/03/15 10:29:19;;;;;;;;;;;20.30;99.90;;;;;;5051251;28;19916;-71
2022/03/15 10:31:46;;;;;;;;;;;20.30;99.90;;;;;;5051555;28;19908;-71
2022/03/15 10:34:13;;;;;;;;;;;20.30;99.90;;;;;;5051573;28;19982;-71
2022/03/15 10:36:42;;;;;;;;;;;20.30;99.90;;;;;;5051406;28;19920;-71
2022/03/15 10:39:10;;;;;;;;;;;20.20;99.90;;;;;;5051072;28;20124;-71
2022/03/15 10:41:48;;;;;;;;;;;20.30;99.90;;;;;;5050567;28;19916;-71
2022/03/15 10:44:16;;;;;;;;;;;20.30;99.90;;;;;;5050782;28;20370;-71
2022/03/15 10:46:43;;;;;;;;;;;20.30;99.90;;;;;;5051091;28;19917;-71
2022/03/15 10:49:09;;;;;;;;;;;20.30;99.90;;;;;;5051258;28;19958;-71
2022/03/15 10:51:37;;;;;;;;;;;20.30;99.90;;;;;;5050657;28;19909;-71
2022/03/15 10:54:05;;;;;;;;;;;20.30;99.90;;;;;;5050957;28;19963;-71
2022/03/15 10:56:32;;;;;;;;;;;20.30;99.90;;;;;;5050299;28;19917;-70
2022/03/15 10:59:00;;;;;;;;;;;20.20;99.90;;;;;;5050886;28;19999;-71
2022/03/15 11:01:27;;;;;;;;;;;20.20;99.90;;;;;;5050863;28;19960;-71
2022/03/15 11:03:54;;;;;;;;;;;20.20;99.90;;;;;;5050885;28;19917;-70
2022/03/15 11:06:38;;;;;;;;;;;20.10;99.90;;;;;;5051087;28;19913;-71
2022/03/15 11:09:23;;;;;;;;;;;20.10;99.90;;;;;;5050319;28;20386;-71
2022/03/15 11:12:08;;;;;;;;;;;19.90;99.90;;;;;;5050796;28;19917;-71
2022/03/15 11:14:42;;;;;;;;;;;19.60;99.90;;;;;;5050658;28;20003;-71
2022/03/15 11:17:12;;;;;;;;;;;19.30;99.90;;;;;;5049887;28;19932;-71
2022/03/15 11:19:40;;;;;;;;;;;19.10;99.90;;;;;;5050729;28;19912;-71
2022/03/15 11:22:07;;;;;;;;;;;19.10;99.90;;;;;;5050202;28;19996;-71
2022/03/15 11:24:38;;;;;;;;;;;19.00;99.90;;;;;;5049975;28;19913;-71
2022/03/15 11:27:08;;;;;;;;;;;19.00;99.90;;;;;;5050247;28;19909;-71
2022/03/15 11:29:36;;;;;;;;;;;19.00;99.90;;;;;;5050553;28;19935;-71
2022/03/15 11:32:02;;;;;;;;;;;18.90;99.90;;;;;;5048638;28;20274;-72
2022/03/15 11:34:30;;;;;;;;;;;18.90;99.90;;;;;;5050429;28;19952;-72
2022/03/15 11:36:57;;;;;;;;;;;19.00;99.90;;;;;;5050687;28;19916;-71
2022/03/15 11:39:24;;;;;;;;;;;19.00;99.90;;;;;;5049786;28;20374;-73
2022/03/15 11:41:51;;;;;;;;;;;19.00;99.90;;;;;;5050321;28;19909;-72
2022/03/15 11:44:41;;;;;;;;;;;19.00;99.90;;;;;;5049776;28;19931;-72
2022/03/15 11:47:27;;;;;;;;;;;19.10;99.90;;;;;;5050184;28;19912;-73
2022/03/15 11:49:59;;;;;;;;;;;19.10;99.90;;;;;;5050387;28;19916;-73
2022/03/15 11:52:44;;;;;;;;;;;19.30;99.90;;;;;;5049969;28;19909;-72
2022/03/15 11:55:10;;;;;;;;;;;19.20;99.90;;;;;;5049572;28;19917;-72
2022/03/15 11:57:59;;;;;;;;;;;19.30;99.90;;;;;;5049745;28;19917;-72
2022/03/15 12:00:54;;;;;;;;;;;19.20;99.90;;;;;;5050207;28;20405;-72
2022/03/15 12:03:23;;;;;;;;;;;19.10;99.90;;;;;;5048635;28;19963;-72
2022/03/15 12:05:51;;;;;;;;;;;19.00;99.90;;;;;;5049943;28;19913;-72
2022/03/15 12:08:20;;;;;;;;;;;19.00;99.90;;;;;;5050148;28;19912;-72
2022/03/15 12:10:47;;;;;;;;;;;18.90;99.90;;;;;;5049794;28;20287;-72
2022/03/15 12:13:15;;;;;;;;;;;18.80;99.90;;;;;;5050096;28;20371;-72
2022/03/15 12:15:44;;;;;;;;;;;18.80;99.90;;;;;;5050081;28;19919;-73
2022/03/15 12:21:07;;;;;;;;;;;18.60;99.90;;;;;;5050116;28;19992;-73
2022/03/15 12:23:45;;;;;;;;;;;18.70;99.90;;;;;;5049770;28;19956;-72
2022/03/15 12:26:22;;;;;;;;;;;18.70;99.90;;;;;;5049643;28;19995;-73
2022/03/15 12:29:03;;;;;;;;;;;18.70;99.90;;;;;;5050472;28;19990;-73
2022/03/15 12:31:34;;;;;;;;;;;18.80;99.90;;;;;;5053977;28;19923;-73
2022/03/15 12:34:05;;;;;;;;;;;18.90;99.90;;;;;;5053651;28;19964;-73
2022/03/15 12:36:38;;;;;;;;;;;18.90;99.90;;;;;;5053279;28;19928;-73
2022/03/15 12:39:11;;;;;;;;;;;18.80;99.90;;;;;;5053393;28;19912;-72
2022/03/15 12:41:39;;;;;;;;;;;18.70;99.90;;;;;;5053654;28;19936;-73
2022/03/15 12:44:07;;;;;;;;;;;18.70;99.90;;;;;;5053385;28;19915;-74
2022/03/15 12:46:35;;;;;;;;;;;18.70;99.90;;;;;;5053496;28;20359;-74
2022/03/15 12:49:09;;;;;;;;;;;18.70;99.90;;;;;;5053192;28;19923;-73
2022/03/15 12:51:46;;;;;;;;;;;18.70;99.90;;;;;;5053414;28;19909;-73
2022/03/15 12:54:14;;;;;;;;;;;18.80;99.90;;;;;;5053264;28;19909;-73
2022/03/15 12:56:42;;;;;;;;;;;18.80;99.90;;;;;;5053029;28;19924;-73
2022/03/15 12:59:16;;;;;;;;;;;18.80;99.90;;;;;;5053444;28;19952;-72
2022/03/15 13:01:47;;;;;;;;;;;18.90;99.90;;;;;;5053029;28;19909;-73
2022/03/15 13:04:15;;;;;;;;;;;18.90;99.90;;;;;;5053230;28;19909;-73
2022/03/15 13:06:42;;;;;;;;;;;18.90;99.90;;;;;;5053282;28;19912;-72
2022/03/15 13:09:09;;;;;;;;;;;19.00;99.90;;;;;;5052987;28;19916;-73
2022/03/15 13:11:48;;;;;;;;;;;19.00;99.90;;;;;;5052733;28;19999;-73
2022/03/15 13:14:15;;;;;;;;;;;19.00;99.90;;;;;;5052954;28;19909;-73
2022/03/15 13:16:49;;;;;;;;;;;19.10;99.90;;;;;;5052360;28;19948;-73
2022/03/15 13:19:29;;;;;;;;;;;19.10;99.90;;;;;;5053080;28;20014;-73
2022/03/15 13:21:56;;;;;;;;;;;19.20;99.90;;;;;;5052924;28;20292;-74
2022/03/15 13:24:28;;;;;;;;;;;19.20;99.90;;;;;;5052819;28;19913;-72
2022/03/15 13:26:59;;;;;;;;;;;19.20;99.90;;;;;;5051458;28;19908;-72
2022/03/15 13:29:29;;;;;;;;;;;19.30;99.90;;;;;;5052358;28;20334;-72
2022/03/15 13:31:58;;;;;;;;;;;19.30;99.90;;;;;;5052837;28;19909;-73
2022/03/15 13:34:27;;;;;;;;;;;19.20;99.90;;;;;;5052207;28;19927;-73
2022/03/15 13:36:53;;;;;;;;;;;19.30;99.90;;;;;;5052485;28;19973;-73
2022/03/15 13:39:23;;;;;;;;;;;19.30;99.90;;;;;;5052504;28;20009;-73
2022/03/15 13:41:51;;;;;;;;;;;19.30;99.90;;;;;;5050735;28;19909;-73
2022/03/15 13:44:22;;;;;;;;;;;19.30;99.90;;;;;;5052510;28;19920;-73
2022/03/15 13:46:51;;;;;;;;;;;19.20;99.90;;;;;;5052663;28;19999;-73
2022/03/15 13:49:25;;;;;;;;;;;19.30;99.90;;;;;;5052548;28;20004;-73
2022/03/15 13:52:14;;;;;;;;;;;19.30;99.90;;;;;;5052364;28;20059;-73
2022/03/15 13:55:00;;;;;;;;;;;19.30;99.90;;;;;;5051747;28;19909;-73
2022/03/15 13:57:28;;;;;;;;;;;19.30;99.90;;;;;;5052206;28;19916;-73
2022/03/15 14:00:00;;;;;;;;;;;19.30;99.90;;;;;;5034544;28;20015;-73
2022/03/15 14:02:32;;;;;;;;;;;19.40;99.90;;;;;;5050627;28;19909;-72
2022/03/15 14:05:09;;;;;;;;;;;19.30;99.90;;;;;;5052180;28;19909;-73
2022/03/15 14:07:35;;;;;;;;;;;19.30;99.90;;;;;;5033833;28;20370;-73
2022/03/15 14:10:08;;;;;;;;;;;19.30;99.90;;;;;;5051557;28;20383;-72
2022/03/15 14:12:35;;;;;;;;;;;19.30;99.90;;;;;;5051883;28;20271;-73
2022/03/15 14:15:13;;;;;;;;;;;19.40;99.90;;;;;;5051731;28;19909;-73
2022/03/15 14:17:50;;;;;;;;;;;19.30;99.90;;;;;;5051634;28;19929;-73
2022/03/15 14:20:21;;;;;;;;;;;19.30;99.90;;;;;;5051172;28;19930;-73
2022/03/15 14:22:49;;;;;;;;;;;19.30;99.90;;;;;;5051678;28;19964;-73
2022/03/15 14:25:21;;;;;;;;;;;19.40;99.90;;;;;;5051643;28;19913;-73
2022/03/15 14:27:54;;;;;;;;;;;19.40;99.90;;;;;;5051595;28;19908;-73